sensor_id;sensor_type;location;lat;lon;timestamp;pressure;altitude;pressure_sealevel;temperature;humidity
2841;BME280;53423;49.224;12.074;2023-03-21T00:00:37;97965.78;;;8.43;68.52
2841;BME280;53423;49.224;12.074;2023-03-21T00:03:05;97971.94;;;8.52;68.81
2841;BME280;53423;49.224;12.074;2023-03-21T00:05:33;97964.78;;;8.54;68.06
2841;BME280;53423;49.224;12.074;2023-03-21T00:08:02;97966.31;;;8.47;67.97
2841;BME280;53423;49.224;12.074;2023-03-21T00:10:30;97962.78;;;8.38;68.37
2841;BME280;53423;49.224;12.074;2023-03-21T00:13:07;97958.00;;;8.34;68.75
2841;BME280;53423;49.224;12.074;2023-03-21T00:15:40;97968.63;;;8.13;68.24
2841;BME280;53423;49.224;12.074;2023-03-21T00:18:35;97963.44;;;8.04;68.72
2841;BME280;53423;49.224;12.074;2023-03-21T00:21:10;97970.28;;;8.14;69.24
2841;BME280;53423;49.224;12.074;2023-03-21T00:23:59;97962.84;;;8.19;68.58
2841;BME280;53423;49.224;12.074;2023-03-21T00:26:27;97964.31;;;8.22;69.37
2841;BME280;53423;49.224;12.074;2023-03-21T00:28:55;97959.41;;;8.19;69.23
2841;BME280;53423;49.224;12.074;2023-03-21T00:31:24;97959.19;;;8.03;69.54
2841;BME280;53423;49.224;12.074;2023-03-21T00:33:52;97954.66;;;7.95;69.83
2841;BME280;53423;49.224;12.074;2023-03-21T00:36:20;97954.25;;;7.90;70.31
2841;BME280;53423;49.224;12.074;2023-03-21T00:38:51;97954.84;;;7.84;70.26
2841;BME280;53423;49.224;12.074;2023-03-21T00:41:19;97951.78;;;7.89;69.95
2841;BME280;53423;49.224;12.074;2023-03-21T00:44:06;97952.84;;;8.05;69.29
2841;BME280;53423;49.224;12.074;2023-03-21T00:46:36;97948.59;;;8.04;69.03
2841;BME280;53423;49.224;12.074;2023-03-21T00:49:24;97947.31;;;8.27;68.65
2841;BME280;53423;49.224;12.074;2023-03-21T00:51:52;97939.47;;;8.27;68.85
2841;BME280;53423;49.224;12.074;2023-03-21T00:54:22;97936.41;;;8.32;68.70
2841;BME280;53423;49.224;12.074;2023-03-21T00:56:51;97942.09;;;8.18;69.40
2841;BME280;53423;49.224;12.074;2023-03-21T00:59:20;97943.78;;;8.09;69.52
2841;BME280;53423;49.224;12.074;2023-03-21T01:01:49;97937.19;;;8.05;69.69
2841;BME280;53423;49.224;12.074;2023-03-21T01:04:19;97936.19;;;8.16;69.55
2841;BME280;53423;49.224;12.074;2023-03-21T01:06:53;97934.97;;;8.20;69.38
2841;BME280;53423;49.224;12.074;2023-03-21T01:09:22;97936.03;;;8.17;69.61
2841;BME280;53423;49.224;12.074;2023-03-21T01:11:51;97936.75;;;8.10;69.73
2841;BME280;53423;49.224;12.074;2023-03-21T01:14:21;97940.47;;;8.07;69.92
2841;BME280;53423;49.224;12.074;2023-03-21T01:16:51;97929.25;;;7.97;70.84
2841;BME280;53423;49.224;12.074;2023-03-21T01:19:22;97931.53;;;8.10;70.23
2841;BME280;53423;49.224;12.074;2023-03-21T01:22:06;97931.78;;;8.26;69.54
2841;BME280;53423;49.224;12.074;2023-03-21T01:24:34;97926.41;;;8.27;69.29
2841;BME280;53423;49.224;12.074;2023-03-21T01:27:09;97930.53;;;8.20;70.34
2841;BME280;53423;49.224;12.074;2023-03-21T01:29:37;97921.75;;;8.21;69.96
2841;BME280;53423;49.224;12.074;2023-03-21T01:32:06;97923.38;;;8.32;70.54
2841;BME280;53423;49.224;12.074;2023-03-21T01:34:34;97925.56;;;8.36;70.20
2841;BME280;53423;49.224;12.074;2023-03-21T01:37:02;97914.38;;;8.44;69.76
2841;BME280;53423;49.224;12.074;2023-03-21T01:39:29;97918.69;;;8.35;69.38
2841;BME280;53423;49.224;12.074;2023-03-21T01:42:00;97922.72;;;8.30;69.48
2841;BME280;53423;49.224;12.074;2023-03-21T01:44:28;97910.44;;;8.40;70.07
2841;BME280;53423;49.224;12.074;2023-03-21T01:46:56;97906.41;;;8.45;69.93
2841;BME280;53423;49.224;12.074;2023-03-21T01:49:40;97905.84;;;8.51;69.50
2841;BME280;53423;49.224;12.074;2023-03-21T01:52:13;97909.09;;;8.53;69.30
2841;BME280;53423;49.224;12.074;2023-03-21T01:54:56;97903.63;;;8.47;70.03
2841;BME280;53423;49.224;12.074;2023-03-21T01:57:27;97901.56;;;8.50;69.67
2841;BME280;53423;49.224;12.074;2023-03-21T02:00:09;97910.06;;;8.52;69.73
2841;BME280;53423;49.224;12.074;2023-03-21T02:02:39;97908.16;;;8.54;69.69
2841;BME280;53423;49.224;12.074;2023-03-21T02:05:25;97906.97;;;8.66;69.43
2841;BME280;53423;49.224;12.074;2023-03-21T02:07:54;97909.28;;;8.69;69.57
2841;BME280;53423;49.224;12.074;2023-03-21T02:10:22;97909.06;;;8.63;69.43
2841;BME280;53423;49.224;12.074;2023-03-21T02:12:50;97904.56;;;8.55;69.73
2841;BME280;53423;49.224;12.074;2023-03-21T02:15:22;97904.00;;;8.52;69.70
2841;BME280;53423;49.224;12.074;2023-03-21T02:17:54;97903.63;;;8.47;69.87
2841;BME280;53423;49.224;12.074;2023-03-21T02:20:48;97905.16;;;8.49;70.16
2841;BME280;53423;49.224;12.074;2023-03-21T02:23:38;97901.78;;;8.57;69.89
2841;BME280;53423;49.224;12.074;2023-03-21T02:26:36;97896.28;;;8.60;69.54
2841;BME280;53423;49.224;12.074;2023-03-21T02:29:19;97893.69;;;8.60;69.33
2841;BME280;53423;49.224;12.074;2023-03-21T02:32:01;97897.50;;;8.38;69.25
2841;BME280;53423;49.224;12.074;2023-03-21T02:35:00;97902.22;;;8.35;70.00
2841;BME280;53423;49.224;12.074;2023-03-21T02:37:38;97890.00;;;8.26;70.20
2841;BME280;53423;49.224;12.074;2023-03-21T02:40:13;97897.88;;;8.16;70.21
2841;BME280;53423;49.224;12.074;2023-03-21T02:42:54;97890.97;;;8.15;70.87
2841;BME280;53423;49.224;12.074;2023-03-21T02:45:30;97900.47;;;8.16;70.27
2841;BME280;53423;49.224;12.074;2023-03-21T02:48:04;97888.22;;;8.26;70.18
2841;BME280;53423;49.224;12.074;2023-03-21T02:50:44;97896.88;;;8.27;69.96
2841;BME280;53423;49.224;12.074;2023-03-21T02:53:18;97894.78;;;8.30;69.75
2841;BME280;53423;49.224;12.074;2023-03-21T02:55:47;97889.28;;;8.33;69.86
2841;BME280;53423;49.224;12.074;2023-03-21T02:58:18;97889.31;;;8.24;70.32
2841;BME280;53423;49.224;12.074;2023-03-21T03:00:47;97894.28;;;8.17;70.72
2841;BME280;53423;49.224;12.074;2023-03-21T03:03:15;97891.22;;;8.22;70.38
2841;BME280;53423;49.224;12.074;2023-03-21T03:05:59;97902.50;;;8.22;70.33
2841;BME280;53423;49.224;12.074;2023-03-21T03:08:36;97906.09;;;8.21;70.39
2841;BME280;53423;49.224;12.074;2023-03-21T03:11:26;97898.53;;;8.18;71.02
2841;BME280;53423;49.224;12.074;2023-03-21T03:14:06;97891.38;;;8.20;71.03
2841;BME280;53423;49.224;12.074;2023-03-21T03:17:05;97903.63;;;8.20;70.33
2841;BME280;53423;49.224;12.074;2023-03-21T03:19:44;97900.47;;;8.16;70.64
2841;BME280;53423;49.224;12.074;2023-03-21T03:22:22;97897.88;;;8.07;71.44
2841;BME280;53423;49.224;12.074;2023-03-21T03:24:56;97899.16;;;8.03;71.57
2841;BME280;53423;49.224;12.074;2023-03-21T03:27:41;97887.72;;;8.04;70.91
2841;BME280;53423;49.224;12.074;2023-03-21T03:30:11;97896.09;;;8.07;71.24
2841;BME280;53423;49.224;12.074;2023-03-21T03:32:43;97896.59;;;8.20;71.19
2841;BME280;53423;49.224;12.074;2023-03-21T03:35:15;97899.78;;;8.14;70.55
2841;BME280;53423;49.224;12.074;2023-03-21T03:37:47;97890.69;;;8.18;71.07
2841;BME280;53423;49.224;12.074;2023-03-21T03:40:20;97896.34;;;8.14;70.74
2841;BME280;53423;49.224;12.074;2023-03-21T03:42:51;97891.41;;;8.11;70.84
2841;BME280;53423;49.224;12.074;2023-03-21T03:45:24;97890.97;;;8.15;71.15
2841;BME280;53423;49.224;12.074;2023-03-21T03:48:00;97891.41;;;8.11;71.18
2841;BME280;53423;49.224;12.074;2023-03-21T03:50:34;97881.94;;;8.10;71.37
2841;BME280;53423;49.224;12.074;2023-03-21T03:53:10;97888.56;;;8.04;71.08
2841;BME280;53423;49.224;12.074;2023-03-21T03:55:46;97888.38;;;8.15;71.06
2841;BME280;53423;49.224;12.074;2023-03-21T03:58:16;97880.25;;;8.28;70.11
2841;BME280;53423;49.224;12.074;2023-03-21T04:00:50;97884.78;;;8.26;70.06
2841;BME280;53423;49.224;12.074;2023-03-21T04:03:19;97887.94;;;8.29;69.99
2841;BME280;53423;49.224;12.074;2023-03-21T04:05:47;97879.72;;;8.24;69.99
2841;BME280;53423;49.224;12.074;2023-03-21T04:08:16;97892.34;;;8.19;70.06
2841;BME280;53423;49.224;12.074;2023-03-21T04:10:45;97879.75;;;8.15;70.49
2841;BME280;53423;49.224;12.074;2023-03-21T04:13:13;97886.06;;;8.12;69.93
2841;BME280;53423;49.224;12.074;2023-03-21T04:15:42;97888.47;;;7.96;70.57
2841;BME280;53423;49.224;12.074;2023-03-21T04:18:10;97888.84;;;8.01;70.84
2841;BME280;53423;49.224;12.074;2023-03-21T04:20:38;97889.56;;;7.94;71.02
2841;BME280;53423;49.224;12.074;2023-03-21T04:23:06;97885.16;;;7.94;70.10
2841;BME280;53423;49.224;12.074;2023-03-21T04:25:34;97887.53;;;7.88;71.04
2841;BME280;53423;49.224;12.074;2023-03-21T04:28:14;97888.63;;;7.85;70.67
2841;BME280;53423;49.224;12.074;2023-03-21T04:30:42;97894.81;;;7.84;70.95
2841;BME280;53423;49.224;12.074;2023-03-21T04:33:26;97889.88;;;7.81;71.57
2841;BME280;53423;49.224;12.074;2023-03-21T04:35:54;97890.41;;;7.85;71.49
2841;BME280;53423;49.224;12.074;2023-03-21T04:38:25;97890.78;;;7.90;71.39
2841;BME280;53423;49.224;12.074;2023-03-21T04:40:56;97893.16;;;7.93;70.14
2841;BME280;53423;49.224;12.074;2023-03-21T04:43:26;97893.41;;;7.90;70.74
2841;BME280;53423;49.224;12.074;2023-03-21T04:45:55;97886.84;;;7.86;70.81
2841;BME280;53423;49.224;12.074;2023-03-21T04:48:23;97889.88;;;7.81;71.19
2841;BME280;53423;49.224;12.074;2023-03-21T04:50:51;97886.88;;;7.76;70.21
2841;BME280;53423;49.224;12.074;2023-03-21T04:53:19;97885.47;;;7.82;70.86
2841;BME280;53423;49.224;12.074;2023-03-21T04:55:46;97890.78;;;7.90;69.99
2841;BME280;53423;49.224;12.074;2023-03-21T04:58:19;97890.00;;;7.89;70.71
2841;BME280;53423;49.224;12.074;2023-03-21T05:00:48;97882.94;;;7.99;70.35
2841;BME280;53423;49.224;12.074;2023-03-21T05:03:18;97881.13;;;8.09;70.44
2841;BME280;53423;49.224;12.074;2023-03-21T05:05:47;97883.69;;;8.19;70.22
2841;BME280;53423;49.224;12.074;2023-03-21T05:08:15;97877.78;;;8.17;69.67
2841;BME280;53423;49.224;12.074;2023-03-21T05:10:43;97888.06;;;8.18;69.86
2841;BME280;53423;49.224;12.074;2023-03-21T05:13:11;97890.03;;;8.16;70.28
2841;BME280;53423;49.224;12.074;2023-03-21T05:15:39;97888.50;;;8.23;70.58
2841;BME280;53423;49.224;12.074;2023-03-21T05:18:08;97884.63;;;8.27;70.35
2841;BME280;53423;49.224;12.074;2023-03-21T05:20:38;97877.94;;;8.25;69.80
2841;BME280;53423;49.224;12.074;2023-03-21T05:23:08;97885.06;;;8.23;70.13
2841;BME280;53423;49.224;12.074;2023-03-21T05:25:37;97886.66;;;8.33;70.31
2841;BME280;53423;49.224;12.074;2023-03-21T05:28:06;97895.66;;;8.21;70.83
2841;BME280;53423;49.224;12.074;2023-03-21T05:30:34;97892.50;;;8.18;70.57
2841;BME280;53423;49.224;12.074;2023-03-21T05:33:03;97885.94;;;8.41;70.15
2841;BME280;53423;49.224;12.074;2023-03-21T05:35:32;97887.00;;;8.48;69.71
2841;BME280;53423;49.224;12.074;2023-03-21T05:38:00;97886.72;;;8.51;70.12
2841;BME280;53423;49.224;12.074;2023-03-21T05:40:28;97886.56;;;8.52;70.11
2841;BME280;53423;49.224;12.074;2023-03-21T05:42:56;97887.00;;;8.48;70.17
2841;BME280;53423;49.224;12.074;2023-03-21T05:45:24;97888.84;;;8.65;70.23
2841;BME280;53423;49.224;12.074;2023-03-21T05:47:52;97889.38;;;8.86;69.32
2841;BME280;53423;49.224;12.074;2023-03-21T05:50:20;97887.56;;;9.04;68.70
2841;BME280;53423;49.224;12.074;2023-03-21T05:52:50;97885.34;;;8.92;69.13
2841;BME280;53423;49.224;12.074;2023-03-21T05:55:18;97889.81;;;8.99;68.77
2841;BME280;53423;49.224;12.074;2023-03-21T05:57:45;97891.31;;;9.19;68.08
2841;BME280;53423;49.224;12.074;2023-03-21T06:00:14;97896.91;;;9.24;67.66
2841;BME280;53423;49.224;12.074;2023-03-21T06:02:43;97901.75;;;9.37;67.05
2841;BME280;53423;49.224;12.074;2023-03-21T06:05:11;97906.38;;;9.43;66.81
2841;BME280;53423;49.224;12.074;2023-03-21T06:07:39;97896.91;;;9.42;66.65
2841;BME280;53423;49.224;12.074;2023-03-21T06:10:09;97896.06;;;9.41;66.47
2841;BME280;53423;49.224;12.074;2023-03-21T06:12:37;97906.84;;;9.56;66.79
2841;BME280;53423;49.224;12.074;2023-03-21T06:15:06;97904.47;;;10.22;64.78
2841;BME280;53423;49.224;12.074;2023-03-21T06:17:35;97907.59;;;10.67;62.20
2841;BME280;53423;49.224;12.074;2023-03-21T06:20:04;97900.78;;;10.82;62.54
2841;BME280;53423;49.224;12.074;2023-03-21T06:22:33;97904.38;;;10.89;62.57
2841;BME280;53423;49.224;12.074;2023-03-21T06:25:01;97906.19;;;10.96;62.66
2841;BME280;53423;49.224;12.074;2023-03-21T06:27:31;97903.94;;;11.17;62.20
2841;BME280;53423;49.224;12.074;2023-03-21T06:29:59;97900.34;;;11.35;60.57
2841;BME280;53423;49.224;12.074;2023-03-21T06:32:27;97900.19;;;11.52;60.67
2841;BME280;53423;49.224;12.074;2023-03-21T06:34:55;97901.16;;;11.51;60.63
2841;BME280;53423;49.224;12.074;2023-03-21T06:37:23;97914.91;;;11.05;60.73
2841;BME280;53423;49.224;12.074;2023-03-21T06:39:52;97913.91;;;11.06;61.03
2841;BME280;53423;49.224;12.074;2023-03-21T06:42:21;97909.88;;;11.36;60.27
2841;BME280;53423;49.224;12.074;2023-03-21T06:44:50;97922.16;;;11.43;60.66
2841;BME280;53423;49.224;12.074;2023-03-21T06:47:18;97912.97;;;11.23;61.91
2841;BME280;53423;49.224;12.074;2023-03-21T06:49:46;97924.72;;;11.03;62.69
2841;BME280;53423;49.224;12.074;2023-03-21T06:52:14;97909.34;;;11.16;61.92
2841;BME280;53423;49.224;12.074;2023-03-21T06:54:42;97920.38;;;11.36;61.79
2841;BME280;53423;49.224;12.074;2023-03-21T06:57:10;97916.59;;;11.62;60.23
2841;BME280;53423;49.224;12.074;2023-03-21T06:59:39;97917.91;;;11.82;59.23
2841;BME280;53423;49.224;12.074;2023-03-21T07:02:10;97914.13;;;11.77;59.42
2841;BME280;53423;49.224;12.074;2023-03-21T07:04:38;97919.22;;;11.70;59.96
2841;BME280;53423;49.224;12.074;2023-03-21T07:07:06;97914.94;;;11.85;59.91
2841;BME280;53423;49.224;12.074;2023-03-21T07:09:34;97921.44;;;12.13;58.94
2841;BME280;53423;49.224;12.074;2023-03-21T07:12:02;97920.97;;;12.10;59.46
2841;BME280;53423;49.224;12.074;2023-03-21T07:14:30;97921.72;;;12.34;59.30
2841;BME280;53423;49.224;12.074;2023-03-21T07:17:00;97911.00;;;12.83;57.31
2841;BME280;53423;49.224;12.074;2023-03-21T07:19:29;97912.72;;;12.68;58.06
2841;BME280;53423;49.224;12.074;2023-03-21T07:21:58;97909.91;;;12.69;57.01
2841;BME280;53423;49.224;12.074;2023-03-21T07:24:27;97910.84;;;13.15;55.80
2841;BME280;53423;49.224;12.074;2023-03-21T07:26:55;97909.97;;;12.92;56.22
2841;BME280;53423;49.224;12.074;2023-03-21T07:29:22;97909.03;;;12.85;56.52
2841;BME280;53423;49.224;12.074;2023-03-21T07:31:50;97911.06;;;13.28;55.64
2841;BME280;53423;49.224;12.074;2023-03-21T07:34:18;97910.81;;;13.60;54.74
2841;BME280;53423;49.224;12.074;2023-03-21T07:36:48;97915.91;;;13.61;54.77
2841;BME280;53423;49.224;12.074;2023-03-21T07:39:16;97913.06;;;13.86;54.18
2841;BME280;53423;49.224;12.074;2023-03-21T07:41:46;97912.34;;;14.06;53.05
2841;BME280;53423;49.224;12.074;2023-03-21T07:44:13;97912.69;;;14.26;52.63
2841;BME280;53423;49.224;12.074;2023-03-21T07:46:41;97914.19;;;14.64;51.33
2841;BME280;53423;49.224;12.074;2023-03-21T07:49:09;97896.44;;;15.44;49.57
2841;BME280;53423;49.224;12.074;2023-03-21T07:51:37;97898.53;;;16.31;47.12
2841;BME280;53423;49.224;12.074;2023-03-21T07:54:06;97897.34;;;16.40;44.79
2841;BME280;53423;49.224;12.074;2023-03-21T07:56:34;97897.56;;;16.86;42.92
2841;BME280;53423;49.224;12.074;2023-03-21T07:59:03;97892.00;;;17.41;42.12
2841;BME280;53423;49.224;12.074;2023-03-21T08:01:30;97890.81;;;17.89;41.49
2841;BME280;53423;49.224;12.074;2023-03-21T08:03:58;97886.91;;;17.33;38.91
2841;BME280;53423;49.224;12.074;2023-03-21T08:06:27;97887.50;;;17.28;39.81
2841;BME280;53423;49.224;12.074;2023-03-21T08:08:57;97882.84;;;17.37;39.44
2841;BME280;53423;49.224;12.074;2023-03-21T08:11:27;97895.72;;;18.12;37.80
2841;BME280;53423;49.224;12.074;2023-03-21T08:13:57;97889.34;;;17.28;39.90
2841;BME280;53423;49.224;12.074;2023-03-21T08:16:25;97885.53;;;17.83;38.69
2841;BME280;53423;49.224;12.074;2023-03-21T08:18:53;97884.53;;;17.77;38.75
2841;BME280;53423;49.224;12.074;2023-03-21T08:21:22;97883.06;;;18.14;37.67
2841;BME280;53423;49.224;12.074;2023-03-21T08:23:50;97898.50;;;18.56;36.07
2841;BME280;53423;49.224;12.074;2023-03-21T08:26:18;97888.50;;;18.45;34.24
2841;BME280;53423;49.224;12.074;2023-03-21T08:28:48;97885.03;;;18.95;36.19
2841;BME280;53423;49.224;12.074;2023-03-21T08:31:16;97886.19;;;19.12;34.51
2841;BME280;53423;49.224;12.074;2023-03-21T08:33:46;97881.81;;;19.87;32.54
2841;BME280;53423;49.224;12.074;2023-03-21T08:36:16;97872.44;;;19.77;34.10
2841;BME280;53423;49.224;12.074;2023-03-21T08:38:44;97868.69;;;18.98;34.11
2841;BME280;53423;49.224;12.074;2023-03-21T08:41:14;97872.13;;;19.05;34.70
2841;BME280;53423;49.224;12.074;2023-03-21T08:43:42;97880.47;;;18.71;33.90
2841;BME280;53423;49.224;12.074;2023-03-21T08:46:11;97873.69;;;18.75;34.75
2841;BME280;53423;49.224;12.074;2023-03-21T08:48:39;97865.47;;;19.83;33.01
2841;BME280;53423;49.224;12.074;2023-03-21T08:51:07;97877.69;;;20.15;33.18
2841;BME280;53423;49.224;12.074;2023-03-21T08:53:35;97871.94;;;20.12;31.89
2841;BME280;53423;49.224;12.074;2023-03-21T08:56:03;97871.72;;;20.13;31.63
2841;BME280;53423;49.224;12.074;2023-03-21T08:58:32;97865.47;;;19.58;31.47
2841;BME280;53423;49.224;12.074;2023-03-21T09:01:00;97866.69;;;20.48;32.13
2841;BME280;53423;49.224;12.074;2023-03-21T09:03:29;97866.97;;;20.76;31.77
2841;BME280;53423;49.224;12.074;2023-03-21T09:05:57;97864.19;;;20.10;32.71
2841;BME280;53423;49.224;12.074;2023-03-21T09:08:26;97858.06;;;20.82;31.06
2841;BME280;53423;49.224;12.074;2023-03-21T09:10:54;97859.03;;;21.58;30.75
2841;BME280;53423;49.224;12.074;2023-03-21T09:13:23;97865.91;;;21.25;29.38
2841;BME280;53423;49.224;12.074;2023-03-21T09:15:51;97857.63;;;21.44;29.54
2841;BME280;53423;49.224;12.074;2023-03-21T09:18:19;97855.41;;;21.41;29.02
2841;BME280;53423;49.224;12.074;2023-03-21T09:21:12;97849.66;;;22.71;28.51
2841;BME280;53423;49.224;12.074;2023-03-21T09:23:41;97854.78;;;22.38;30.03
2841;BME280;53423;49.224;12.074;2023-03-21T09:26:10;97843.44;;;21.32;30.25
2841;BME280;53423;49.224;12.074;2023-03-21T09:28:39;97836.22;;;21.74;29.45
2841;BME280;53423;49.224;12.074;2023-03-21T09:31:08;97836.56;;;21.13;29.80
2841;BME280;53423;49.224;12.074;2023-03-21T09:33:38;97840.06;;;21.89;29.15
2841;BME280;53423;49.224;12.074;2023-03-21T09:36:09;97837.25;;;22.82;27.42
2841;BME280;53423;49.224;12.074;2023-03-21T09:38:39;97833.69;;;22.13;27.83
2841;BME280;53423;49.224;12.074;2023-03-21T09:41:16;97837.72;;;22.16;26.59
2841;BME280;53423;49.224;12.074;2023-03-21T09:43:58;97833.50;;;22.94;26.30
2841;BME280;53423;49.224;12.074;2023-03-21T09:46:35;97828.56;;;22.86;27.16
2841;BME280;53423;49.224;12.074;2023-03-21T09:49:10;97820.91;;;23.34;25.16
2841;BME280;53423;49.224;12.074;2023-03-21T09:51:45;97835.97;;;23.41;24.55
2841;BME280;53423;49.224;12.074;2023-03-21T09:54:18;97835.25;;;23.78;26.07
2841;BME280;53423;49.224;12.074;2023-03-21T09:56:51;97837.72;;;23.18;25.13
2841;BME280;53423;49.224;12.074;2023-03-21T09:59:25;97825.09;;;23.30;24.79
2841;BME280;53423;49.224;12.074;2023-03-21T10:01:58;97816.13;;;24.84;23.03
2841;BME280;53423;49.224;12.074;2023-03-21T10:04:27;97821.53;;;25.16;22.58
2841;BME280;53423;49.224;12.074;2023-03-21T10:07:00;97818.13;;;24.72;23.54
2841;BME280;53423;49.224;12.074;2023-03-21T10:09:30;97821.31;;;22.47;23.86
2841;BME280;53423;49.224;12.074;2023-03-21T10:12:02;97813.00;;;23.94;24.24
2841;BME280;53423;49.224;12.074;2023-03-21T10:14:35;97810.31;;;24.71;22.73
2841;BME280;53423;49.224;12.074;2023-03-21T10:17:15;97803.56;;;24.68;22.55
2841;BME280;53423;49.224;12.074;2023-03-21T10:19:55;97804.31;;;22.76;23.81
2841;BME280;53423;49.224;12.074;2023-03-21T10:22:25;97792.78;;;24.41;22.98
2841;BME280;53423;49.224;12.074;2023-03-21T10:24:52;97797.09;;;24.64;23.46
2841;BME280;53423;49.224;12.074;2023-03-21T10:27:20;97801.63;;;25.12;24.59
2841;BME280;53423;49.224;12.074;2023-03-21T10:29:48;97791.88;;;25.01;23.15
2841;BME280;53423;49.224;12.074;2023-03-21T10:32:18;97783.19;;;25.42;22.07
2841;BME280;53423;49.224;12.074;2023-03-21T10:34:50;97778.97;;;25.56;21.68
2841;BME280;53423;49.224;12.074;2023-03-21T10:37:22;97791.88;;;23.43;24.77
2841;BME280;53423;49.224;12.074;2023-03-21T10:39:54;97779.84;;;23.46;24.52
2841;BME280;53423;49.224;12.074;2023-03-21T10:42:24;97780.19;;;23.49;23.38
2841;BME280;53423;49.224;12.074;2023-03-21T10:44:53;97781.56;;;24.23;23.45
2841;BME280;53423;49.224;12.074;2023-03-21T10:47:24;97770.00;;;25.45;22.94
2841;BME280;53423;49.224;12.074;2023-03-21T10:49:53;97776.72;;;26.21;22.29
2841;BME280;53423;49.224;12.074;2023-03-21T10:52:34;97771.09;;;24.21;23.90
2841;BME280;53423;49.224;12.074;2023-03-21T10:55:07;97760.09;;;25.46;22.40
2841;BME280;53423;49.224;12.074;2023-03-21T10:57:42;97774.69;;;24.10;23.85
2841;BME280;53423;49.224;12.074;2023-03-21T11:00:17;97767.47;;;23.94;25.11
2841;BME280;53423;49.224;12.074;2023-03-21T11:02:47;97765.59;;;23.40;26.16
2841;BME280;53423;49.224;12.074;2023-03-21T11:05:20;97764.25;;;23.09;27.42
2841;BME280;53423;49.224;12.074;2023-03-21T11:07:57;97754.31;;;23.38;25.96
2841;BME280;53423;49.224;12.074;2023-03-21T11:10:29;97759.28;;;22.85;25.15
2841;BME280;53423;49.224;12.074;2023-03-21T11:13:01;97750.94;;;22.98;26.59
2841;BME280;53423;49.224;12.074;2023-03-21T11:15:32;97747.19;;;23.27;24.44
2841;BME280;53423;49.224;12.074;2023-03-21T11:18:13;97748.59;;;23.84;25.44
2841;BME280;53423;49.224;12.074;2023-03-21T11:20:52;97732.84;;;23.88;23.31
2841;BME280;53423;49.224;12.074;2023-03-21T11:23:26;97739.44;;;23.80;25.62
2841;BME280;53423;49.224;12.074;2023-03-21T11:25:57;97739.31;;;22.76;24.48
2841;BME280;53423;49.224;12.074;2023-03-21T11:28:32;97728.19;;;23.62;25.42
2841;BME280;53423;49.224;12.074;2023-03-21T11:31:02;97716.94;;;24.41;24.48
2841;BME280;53423;49.224;12.074;2023-03-21T11:33:33;97722.25;;;25.16;24.50
2841;BME280;53423;49.224;12.074;2023-03-21T11:36:04;97727.09;;;23.79;24.58
2841;BME280;53423;49.224;12.074;2023-03-21T11:38:36;97719.59;;;23.26;25.16
2841;BME280;53423;49.224;12.074;2023-03-21T11:41:06;97709.72;;;23.82;25.10
2841;BME280;53423;49.224;12.074;2023-03-21T11:43:36;97706.50;;;22.80;25.86
2841;BME280;53423;49.224;12.074;2023-03-21T11:46:06;97702.59;;;23.87;26.45
2841;BME280;53423;49.224;12.074;2023-03-21T11:48:38;97704.06;;;24.43;24.65
2841;BME280;53423;49.224;12.074;2023-03-21T11:51:13;97703.53;;;24.19;24.74
2841;BME280;53423;49.224;12.074;2023-03-21T11:53:48;97696.44;;;23.49;25.89
2841;BME280;53423;49.224;12.074;2023-03-21T11:56:23;97691.34;;;23.69;27.34
2841;BME280;53423;49.224;12.074;2023-03-21T11:59:17;97684.56;;;23.83;26.93
2841;BME280;53423;49.224;12.074;2023-03-21T12:01:57;97675.78;;;24.04;25.07
2841;BME280;53423;49.224;12.074;2023-03-21T12:04:39;97672.53;;;23.64;26.87
2841;BME280;53423;49.224;12.074;2023-03-21T12:07:21;97668.88;;;23.31;27.51
2841;BME280;53423;49.224;12.074;2023-03-21T12:09:56;97665.03;;;22.61;27.31
2841;BME280;53423;49.224;12.074;2023-03-21T12:12:38;97654.28;;;23.06;26.92
2841;BME280;53423;49.224;12.074;2023-03-21T12:15:13;97644.38;;;23.06;27.72
2841;BME280;53423;49.224;12.074;2023-03-21T12:17:49;97651.09;;;22.76;29.29
2841;BME280;53423;49.224;12.074;2023-03-21T12:20:32;97650.53;;;23.07;26.95
2841;BME280;53423;49.224;12.074;2023-03-21T12:23:16;97646.16;;;23.01;27.46
2841;BME280;53423;49.224;12.074;2023-03-21T12:25:50;97643.84;;;22.15;29.03
2841;BME280;53423;49.224;12.074;2023-03-21T12:28:34;97643.94;;;22.65;28.58
2841;BME280;53423;49.224;12.074;2023-03-21T12:31:10;97643.63;;;22.33;28.29
2841;BME280;53423;49.224;12.074;2023-03-21T12:33:57;97637.75;;;22.31;28.03
2841;BME280;53423;49.224;12.074;2023-03-21T12:36:41;97631.28;;;22.44;27.90
2841;BME280;53423;49.224;12.074;2023-03-21T12:39:23;97631.84;;;22.46;28.93
2841;BME280;53423;49.224;12.074;2023-03-21T12:42:09;97628.97;;;22.80;28.00
2841;BME280;53423;49.224;12.074;2023-03-21T12:44:45;97631.41;;;22.65;29.26
2841;BME280;53423;49.224;12.074;2023-03-21T12:47:16;97630.53;;;22.03;28.18
2841;BME280;53423;49.224;12.074;2023-03-21T12:49:48;97626.66;;;22.39;28.55
2841;BME280;53423;49.224;12.074;2023-03-21T12:52:23;97625.53;;;22.52;29.68
2841;BME280;53423;49.224;12.074;2023-03-21T12:54:55;97624.59;;;22.01;29.49
2841;BME280;53423;49.224;12.074;2023-03-21T12:57:28;97624.69;;;22.06;29.13
2841;BME280;53423;49.224;12.074;2023-03-21T13:00:02;97621.94;;;21.27;29.64
2841;BME280;53423;49.224;12.074;2023-03-21T13:02:39;97614.63;;;21.46;31.51
2841;BME280;53423;49.224;12.074;2023-03-21T13:05:16;97616.78;;;21.72;29.68
2841;BME280;53423;49.224;12.074;2023-03-21T13:07:49;97614.59;;;21.69;28.70
2841;BME280;53423;49.224;12.074;2023-03-21T13:10:20;97610.28;;;21.68;29.61
2841;BME280;53423;49.224;12.074;2023-03-21T13:13:00;97597.38;;;21.76;30.36
2841;BME280;53423;49.224;12.074;2023-03-21T13:15:51;97605.59;;;21.47;30.67
2841;BME280;53423;49.224;12.074;2023-03-21T13:18:32;97598.91;;;21.10;30.66
2841;BME280;53423;49.224;12.074;2023-03-21T13:21:06;97601.09;;;21.13;31.01
2841;BME280;53423;49.224;12.074;2023-03-21T13:23:38;97601.06;;;21.47;31.21
2841;BME280;53423;49.224;12.074;2023-03-21T13:26:08;97594.50;;;21.27;31.22
2841;BME280;53423;49.224;12.074;2023-03-21T13:28:39;97596.06;;;20.70;30.31
2841;BME280;53423;49.224;12.074;2023-03-21T13:31:20;97599.50;;;21.12;31.79